Le Roy, Minnesota
Current Conditions -  °F | °C
As of 1:55 AM on Saturday 20 Dec 2014 (Local Time) from KFKA Reporting Station
Overcast Overcast  
Wind Chill: 20°   Ceiling: 1500
Heat Index: 26°   Visibility: 10mi
Dew Point: 23°   Wind: 6mph
Humidity: 87%   Direction: 160°SSE
Pressure: 30.19"   Gusts: NA
Location:  43.51°N, 92.5°W
Report Text: KFKA 200755Z AUTO 16005KT 10SM OVC015 M03/M05 A3019 RMK AO2 T10321051
Loading
Personal Weather Stations






























Interactive Weather Map New forecast layout! Learn more

10-Day Weather Forecast

Advertisements
Track Severe Weather on mobile